Middlesex Center, Vermont
Current Conditions -  °F | °C
As of 7:51 PM on Monday 22 Dec 2014 (Local Time) from KMPV Reporting Station
Overcast Overcast  
Wind Chill: 27°   Ceiling: 3900
Heat Index: 32°   Visibility: 9mi
Dew Point: 29°   Wind: 5mph
Humidity: 88%   Direction: 180°S
Pressure: 30.32"   Gusts: NA
Location:  44.2861°N, 72.6004°W
Report Text: KMPV 230051Z AUTO 18004KT 9SM FEW021 SCT030 OVC039 00/M02 A3032 RMK AO2 SNB2356E06B28E45 SLP285 P0000 T00001017
Loading
Personal Weather Stations






























Interactive Weather Map New forecast layout! Learn more

10-Day Weather Forecast

Advertisements
Track Severe Weather on mobile